Ripon, Wisconsin
Current Conditions -  °F | °C
As of 2:53 PM on Saturday 25 Oct 2014 (Local Time) from KOSH Reporting Station
Clear Clear  
Wind Chill: 63°   Ceiling: Unl
Heat Index: 63°   Visibility: 10mi
Dew Point: 31°   Wind: 23mph
Humidity: 30%   Direction: 290°WNW
Pressure: 29.86"   Gusts: 32mph
Location:  43.85°N, 88.84°W
Report Text: KOSH 251953Z 29020G28KT 10SM CLR 17/M01 A2986 RMK AO2 PK WND 29028/1949 SLP108 T01721006
Loading
Personal Weather Stations






























Interactive Weather Map New forecast layout! Learn more

10-Day Weather Forecast

Advertisements
Track Severe Weather on mobile